sensor_id;sensor_type;location;lat;lon;timestamp;P1;durP1;ratioP1;P2;durP2;ratioP2
10523;SDS011;5310;48.638;9.060;2023-03-01T00:00:38;1.00;;;1.00;;
10523;SDS011;5310;48.638;9.060;2023-03-01T00:03:04;0.90;;;0.90;;
10523;SDS011;5310;48.638;9.060;2023-03-01T00:05:30;0.90;;;0.90;;
10523;SDS011;5310;48.638;9.060;2023-03-01T00:07:57;1.00;;;1.00;;
10523;SDS011;5310;48.638;9.060;2023-03-01T00:10:23;1.00;;;1.00;;
10523;SDS011;5310;48.638;9.060;2023-03-01T00:12:49;1.10;;;1.10;;
10523;SDS011;5310;48.638;9.060;2023-03-01T00:15:14;0.80;;;0.80;;
10523;SDS011;5310;48.638;9.060;2023-03-01T00:17:40;0.90;;;0.90;;
10523;SDS011;5310;48.638;9.060;2023-03-01T00:20:07;1.00;;;1.00;;
10523;SDS011;5310;48.638;9.060;2023-03-01T00:22:35;0.93;;;0.93;;
10523;SDS011;5310;48.638;9.060;2023-03-01T00:25:01;0.80;;;0.80;;
10523;SDS011;5310;48.638;9.060;2023-03-01T00:27:26;1.00;;;1.00;;
10523;SDS011;5310;48.638;9.060;2023-03-01T00:29:52;1.00;;;1.00;;
10523;SDS011;5310;48.638;9.060;2023-03-01T00:32:18;1.10;;;1.10;;
10523;SDS011;5310;48.638;9.060;2023-03-01T00:34:44;0.90;;;0.90;;
10523;SDS011;5310;48.638;9.060;2023-03-01T00:37:18;0.90;;;0.90;;
10523;SDS011;5310;48.638;9.060;2023-03-01T00:39:45;1.05;;;1.05;;
10523;SDS011;5310;48.638;9.060;2023-03-01T00:42:11;1.00;;;1.00;;
10523;SDS011;5310;48.638;9.060;2023-03-01T00:44:37;1.00;;;1.00;;
10523;SDS011;5310;48.638;9.060;2023-03-01T00:47:03;0.82;;;0.82;;
10523;SDS011;5310;48.638;9.060;2023-03-01T00:49:29;0.90;;;0.90;;
10523;SDS011;5310;48.638;9.060;2023-03-01T00:51:55;1.00;;;1.00;;
10523;SDS011;5310;48.638;9.060;2023-03-01T00:54:21;1.05;;;1.05;;
10523;SDS011;5310;48.638;9.060;2023-03-01T00:56:47;1.00;;;1.00;;
10523;SDS011;5310;48.638;9.060;2023-03-01T00:59:13;0.90;;;0.90;;
10523;SDS011;5310;48.638;9.060;2023-03-01T01:01:39;1.00;;;1.00;;
10523;SDS011;5310;48.638;9.060;2023-03-01T01:04:06;1.00;;;1.00;;
10523;SDS011;5310;48.638;9.060;2023-03-01T01:06:33;1.10;;;1.10;;
10523;SDS011;5310;48.638;9.060;2023-03-01T01:09:00;0.80;;;0.80;;
10523;SDS011;5310;48.638;9.060;2023-03-01T01:11:27;1.00;;;1.00;;
10523;SDS011;5310;48.638;9.060;2023-03-01T01:13:53;1.00;;;1.00;;
10523;SDS011;5310;48.638;9.060;2023-03-01T01:16:20;1.10;;;1.10;;
10523;SDS011;5310;48.638;9.060;2023-03-01T01:18:46;0.80;;;0.80;;
10523;SDS011;5310;48.638;9.060;2023-03-01T01:21:13;0.90;;;0.90;;
10523;SDS011;5310;48.638;9.060;2023-03-01T01:23:40;1.10;;;1.10;;
10523;SDS011;5310;48.638;9.060;2023-03-01T01:26:07;1.10;;;1.10;;
10523;SDS011;5310;48.638;9.060;2023-03-01T01:28:33;0.90;;;0.90;;
10523;SDS011;5310;48.638;9.060;2023-03-01T01:30:59;0.90;;;0.90;;
10523;SDS011;5310;48.638;9.060;2023-03-01T01:33:25;0.98;;;0.98;;
10523;SDS011;5310;48.638;9.060;2023-03-01T01:35:51;1.00;;;1.00;;
10523;SDS011;5310;48.638;9.060;2023-03-01T01:38:18;1.10;;;1.10;;
10523;SDS011;5310;48.638;9.060;2023-03-01T01:40:47;0.90;;;0.90;;
10523;SDS011;5310;48.638;9.060;2023-03-01T01:45:50;1.00;;;1.00;;
10523;SDS011;5310;48.638;9.060;2023-03-01T01:48:18;1.00;;;1.00;;
10523;SDS011;5310;48.638;9.060;2023-03-01T01:50:44;1.10;;;1.10;;
10523;SDS011;5310;48.638;9.060;2023-03-01T01:53:14;0.90;;;0.90;;
10523;SDS011;5310;48.638;9.060;2023-03-01T01:55:41;0.93;;;0.93;;
10523;SDS011;5310;48.638;9.060;2023-03-01T01:58:08;1.00;;;1.00;;
10523;SDS011;5310;48.638;9.060;2023-03-01T02:00:35;1.10;;;1.10;;
10523;SDS011;5310;48.638;9.060;2023-03-01T02:03:05;1.10;;;1.10;;
10523;SDS011;5310;48.638;9.060;2023-03-01T02:05:38;0.90;;;0.90;;
10523;SDS011;5310;48.638;9.060;2023-03-01T02:08:05;0.90;;;0.90;;
10523;SDS011;5310;48.638;9.060;2023-03-01T02:10:32;1.00;;;1.00;;
10523;SDS011;5310;48.638;9.060;2023-03-01T02:12:59;1.10;;;1.10;;
10523;SDS011;5310;48.638;9.060;2023-03-01T02:15:25;1.00;;;1.00;;
10523;SDS011;5310;48.638;9.060;2023-03-01T02:17:51;0.90;;;0.90;;
10523;SDS011;5310;48.638;9.060;2023-03-01T02:23:00;1.00;;;1.00;;
10523;SDS011;5310;48.638;9.060;2023-03-01T02:25:40;1.00;;;1.00;;
10523;SDS011;5310;48.638;9.060;2023-03-01T02:30:46;1.00;;;1.00;;
10523;SDS011;5310;48.638;9.060;2023-03-01T02:33:31;1.10;;;1.10;;
10523;SDS011;5310;48.638;9.060;2023-03-01T02:36:01;0.83;;;0.83;;
10523;SDS011;5310;48.638;9.060;2023-03-01T02:38:29;0.90;;;0.90;;
10523;SDS011;5310;48.638;9.060;2023-03-01T02:40:55;0.95;;;0.95;;
10523;SDS011;5310;48.638;9.060;2023-03-01T02:43:23;1.00;;;1.00;;
10523;SDS011;5310;48.638;9.060;2023-03-01T02:45:50;1.10;;;1.10;;
10523;SDS011;5310;48.638;9.060;2023-03-01T02:48:17;0.90;;;0.90;;
10523;SDS011;5310;48.638;9.060;2023-03-01T02:50:51;0.90;;;0.90;;
10523;SDS011;5310;48.638;9.060;2023-03-01T02:55:58;1.00;;;1.00;;
10523;SDS011;5310;48.638;9.060;2023-03-01T02:58:24;1.00;;;1.00;;
10523;SDS011;5310;48.638;9.060;2023-03-01T03:00:50;1.02;;;1.02;;
10523;SDS011;5310;48.638;9.060;2023-03-01T03:03:19;1.00;;;1.00;;
10523;SDS011;5310;48.638;9.060;2023-03-01T03:05:45;0.80;;;0.80;;
10523;SDS011;5310;48.638;9.060;2023-03-01T03:08:12;0.80;;;0.80;;
10523;SDS011;5310;48.638;9.060;2023-03-01T03:10:39;0.95;;;0.95;;
10523;SDS011;5310;48.638;9.060;2023-03-01T03:13:07;1.00;;;1.00;;
10523;SDS011;5310;48.638;9.060;2023-03-01T03:15:33;1.00;;;1.00;;
10523;SDS011;5310;48.638;9.060;2023-03-01T03:18:02;1.10;;;1.10;;
10523;SDS011;5310;48.638;9.060;2023-03-01T03:20:28;0.90;;;0.90;;
10523;SDS011;5310;48.638;9.060;2023-03-01T03:22:55;0.80;;;0.80;;
10523;SDS011;5310;48.638;9.060;2023-03-01T03:25:21;0.90;;;0.90;;
10523;SDS011;5310;48.638;9.060;2023-03-01T03:27:48;1.00;;;1.00;;
10523;SDS011;5310;48.638;9.060;2023-03-01T03:30:16;1.00;;;1.00;;
10523;SDS011;5310;48.638;9.060;2023-03-01T03:32:43;1.10;;;1.10;;
10523;SDS011;5310;48.638;9.060;2023-03-01T03:35:16;1.00;;;1.00;;
10523;SDS011;5310;48.638;9.060;2023-03-01T03:37:43;0.77;;;0.77;;
10523;SDS011;5310;48.638;9.060;2023-03-01T03:40:27;0.80;;;0.80;;
10523;SDS011;5310;48.638;9.060;2023-03-01T03:42:54;1.00;;;1.00;;
10523;SDS011;5310;48.638;9.060;2023-03-01T03:45:20;1.00;;;1.00;;
10523;SDS011;5310;48.638;9.060;2023-03-01T03:47:46;1.00;;;1.00;;
10523;SDS011;5310;48.638;9.060;2023-03-01T03:50:12;1.00;;;1.00;;
10523;SDS011;5310;48.638;9.060;2023-03-01T03:52:39;0.80;;;0.80;;
10523;SDS011;5310;48.638;9.060;2023-03-01T03:55:06;0.87;;;0.87;;
10523;SDS011;5310;48.638;9.060;2023-03-01T03:57:42;0.90;;;0.90;;
10523;SDS011;5310;48.638;9.060;2023-03-01T04:00:11;1.00;;;1.00;;
10523;SDS011;5310;48.638;9.060;2023-03-01T04:02:43;1.00;;;1.00;;
10523;SDS011;5310;48.638;9.060;2023-03-01T04:05:10;1.10;;;1.10;;
10523;SDS011;5310;48.638;9.060;2023-03-01T04:07:36;1.00;;;1.00;;
10523;SDS011;5310;48.638;9.060;2023-03-01T04:10:07;0.77;;;0.77;;
10523;SDS011;5310;48.638;9.060;2023-03-01T04:12:33;0.70;;;0.70;;
10523;SDS011;5310;48.638;9.060;2023-03-01T04:15:00;0.80;;;0.80;;
10523;SDS011;5310;48.638;9.060;2023-03-01T04:17:26;0.93;;;0.93;;
10523;SDS011;5310;48.638;9.060;2023-03-01T04:19:52;1.00;;;1.00;;
10523;SDS011;5310;48.638;9.060;2023-03-01T04:22:18;1.00;;;1.00;;
10523;SDS011;5310;48.638;9.060;2023-03-01T04:24:44;1.00;;;1.00;;
10523;SDS011;5310;48.638;9.060;2023-03-01T04:27:11;0.70;;;0.70;;
10523;SDS011;5310;48.638;9.060;2023-03-01T04:29:37;0.77;;;0.77;;
10523;SDS011;5310;48.638;9.060;2023-03-01T04:32:03;0.80;;;0.80;;
10523;SDS011;5310;48.638;9.060;2023-03-01T04:34:29;0.80;;;0.80;;
10523;SDS011;5310;48.638;9.060;2023-03-01T04:36:55;1.00;;;1.00;;
10523;SDS011;5310;48.638;9.060;2023-03-01T04:39:22;1.10;;;1.10;;
10523;SDS011;5310;48.638;9.060;2023-03-01T04:41:47;1.00;;;1.00;;
10523;SDS011;5310;48.638;9.060;2023-03-01T04:44:13;0.90;;;0.90;;
10523;SDS011;5310;48.638;9.060;2023-03-01T04:46:39;0.70;;;0.70;;
10523;SDS011;5310;48.638;9.060;2023-03-01T04:49:05;1.00;;;1.00;;
10523;SDS011;5310;48.638;9.060;2023-03-01T04:51:31;0.90;;;0.90;;
10523;SDS011;5310;48.638;9.060;2023-03-01T04:53:57;0.70;;;0.70;;
10523;SDS011;5310;48.638;9.060;2023-03-01T04:56:23;0.80;;;0.80;;
10523;SDS011;5310;48.638;9.060;2023-03-01T04:58:52;1.00;;;1.00;;
10523;SDS011;5310;48.638;9.060;2023-03-01T05:01:19;1.00;;;1.00;;
10523;SDS011;5310;48.638;9.060;2023-03-01T05:03:50;1.10;;;1.10;;
10523;SDS011;5310;48.638;9.060;2023-03-01T05:06:16;1.00;;;1.00;;
10523;SDS011;5310;48.638;9.060;2023-03-01T05:08:43;0.80;;;0.80;;
10523;SDS011;5310;48.638;9.060;2023-03-01T05:11:09;0.70;;;0.70;;
10523;SDS011;5310;48.638;9.060;2023-03-01T05:13:35;0.80;;;0.80;;
10523;SDS011;5310;48.638;9.060;2023-03-01T05:16:02;0.90;;;0.90;;
10523;SDS011;5310;48.638;9.060;2023-03-01T05:18:29;1.07;;;1.07;;
10523;SDS011;5310;48.638;9.060;2023-03-01T05:20:56;1.00;;;1.00;;
10523;SDS011;5310;48.638;9.060;2023-03-01T05:23:23;1.10;;;1.10;;
10523;SDS011;5310;48.638;9.060;2023-03-01T05:25:49;0.80;;;0.80;;
10523;SDS011;5310;48.638;9.060;2023-03-01T05:28:17;0.70;;;0.70;;
10523;SDS011;5310;48.638;9.060;2023-03-01T05:30:44;0.80;;;0.80;;
10523;SDS011;5310;48.638;9.060;2023-03-01T05:33:10;0.90;;;0.90;;
10523;SDS011;5310;48.638;9.060;2023-03-01T05:35:38;0.90;;;0.90;;
10523;SDS011;5310;48.638;9.060;2023-03-01T05:38:05;1.00;;;1.00;;
10523;SDS011;5310;48.638;9.060;2023-03-01T05:40:32;1.10;;;1.10;;
10523;SDS011;5310;48.638;9.060;2023-03-01T05:42:59;1.00;;;1.00;;
10523;SDS011;5310;48.638;9.060;2023-03-01T05:45:25;1.10;;;1.10;;
10523;SDS011;5310;48.638;9.060;2023-03-01T05:47:52;1.10;;;1.10;;
10523;SDS011;5310;48.638;9.060;2023-03-01T05:50:21;1.10;;;1.10;;
10523;SDS011;5310;48.638;9.060;2023-03-01T05:52:51;1.00;;;1.00;;
10523;SDS011;5310;48.638;9.060;2023-03-01T05:55:18;0.90;;;0.90;;
10523;SDS011;5310;48.638;9.060;2023-03-01T05:57:45;0.90;;;0.90;;
10523;SDS011;5310;48.638;9.060;2023-03-01T06:00:12;1.00;;;1.00;;
10523;SDS011;5310;48.638;9.060;2023-03-01T06:02:39;1.00;;;1.00;;
10523;SDS011;5310;48.638;9.060;2023-03-01T06:05:06;1.00;;;1.00;;
10523;SDS011;5310;48.638;9.060;2023-03-01T06:07:32;0.90;;;0.90;;
10523;SDS011;5310;48.638;9.060;2023-03-01T06:09:58;0.80;;;0.80;;
10523;SDS011;5310;48.638;9.060;2023-03-01T06:12:24;0.80;;;0.80;;
10523;SDS011;5310;48.638;9.060;2023-03-01T06:14:50;0.90;;;0.90;;
10523;SDS011;5310;48.638;9.060;2023-03-01T06:17:15;1.00;;;1.00;;
10523;SDS011;5310;48.638;9.060;2023-03-01T06:19:41;1.00;;;1.00;;
10523;SDS011;5310;48.638;9.060;2023-03-01T06:22:07;1.00;;;1.00;;
10523;SDS011;5310;48.638;9.060;2023-03-01T06:24:33;1.10;;;1.10;;
10523;SDS011;5310;48.638;9.060;2023-03-01T06:26:59;0.93;;;0.93;;
10523;SDS011;5310;48.638;9.060;2023-03-01T06:29:25;0.82;;;0.82;;
10523;SDS011;5310;48.638;9.060;2023-03-01T06:31:51;0.70;;;0.70;;
10523;SDS011;5310;48.638;9.060;2023-03-01T06:34:17;0.70;;;0.70;;
10523;SDS011;5310;48.638;9.060;2023-03-01T06:36:43;0.80;;;0.80;;
10523;SDS011;5310;48.638;9.060;2023-03-01T06:39:09;0.70;;;0.70;;
10523;SDS011;5310;48.638;9.060;2023-03-01T06:41:35;0.90;;;0.90;;
10523;SDS011;5310;48.638;9.060;2023-03-01T06:44:01;1.00;;;1.00;;
10523;SDS011;5310;48.638;9.060;2023-03-01T06:46:27;1.00;;;1.00;;
10523;SDS011;5310;48.638;9.060;2023-03-01T06:48:53;1.00;;;1.00;;
10523;SDS011;5310;48.638;9.060;2023-03-01T06:51:19;1.10;;;1.10;;
10523;SDS011;5310;48.638;9.060;2023-03-01T06:53:45;1.10;;;1.10;;
10523;SDS011;5310;48.638;9.060;2023-03-01T06:56:11;1.13;;;1.13;;
10523;SDS011;5310;48.638;9.060;2023-03-01T06:58:37;1.10;;;1.10;;
10523;SDS011;5310;48.638;9.060;2023-03-01T07:01:08;1.10;;;1.10;;
10523;SDS011;5310;48.638;9.060;2023-03-01T07:03:34;1.20;;;1.20;;
10523;SDS011;5310;48.638;9.060;2023-03-01T07:06:00;1.10;;;1.10;;
10523;SDS011;5310;48.638;9.060;2023-03-01T07:08:26;1.10;;;1.10;;
10523;SDS011;5310;48.638;9.060;2023-03-01T07:10:58;1.20;;;1.20;;
10523;SDS011;5310;48.638;9.060;2023-03-01T07:13:24;1.10;;;1.10;;
10523;SDS011;5310;48.638;9.060;2023-03-01T07:15:50;1.10;;;1.10;;
10523;SDS011;5310;48.638;9.060;2023-03-01T07:18:16;1.20;;;1.20;;
10523;SDS011;5310;48.638;9.060;2023-03-01T07:20:41;1.10;;;1.10;;
10523;SDS011;5310;48.638;9.060;2023-03-01T07:23:07;1.20;;;1.20;;
10523;SDS011;5310;48.638;9.060;2023-03-01T07:25:33;1.10;;;1.10;;
10523;SDS011;5310;48.638;9.060;2023-03-01T07:27:59;1.20;;;1.20;;
10523;SDS011;5310;48.638;9.060;2023-03-01T07:30:25;1.10;;;1.10;;
10523;SDS011;5310;48.638;9.060;2023-03-01T07:32:53;1.13;;;1.13;;
10523;SDS011;5310;48.638;9.060;2023-03-01T07:35:19;1.10;;;1.10;;
10523;SDS011;5310;48.638;9.060;2023-03-01T07:37:45;1.10;;;1.10;;
10523;SDS011;5310;48.638;9.060;2023-03-01T07:40:10;1.10;;;1.10;;
10523;SDS011;5310;48.638;9.060;2023-03-01T07:42:37;1.10;;;1.10;;
10523;SDS011;5310;48.638;9.060;2023-03-01T07:45:03;1.10;;;1.10;;
10523;SDS011;5310;48.638;9.060;2023-03-01T07:47:29;1.10;;;1.10;;
10523;SDS011;5310;48.638;9.060;2023-03-01T07:49:55;1.13;;;1.13;;
10523;SDS011;5310;48.638;9.060;2023-03-01T07:52:21;1.10;;;1.10;;
10523;SDS011;5310;48.638;9.060;2023-03-01T07:54:47;1.20;;;1.20;;
10523;SDS011;5310;48.638;9.060;2023-03-01T07:57:13;1.10;;;1.10;;
10523;SDS011;5310;48.638;9.060;2023-03-01T07:59:39;1.10;;;1.10;;
10523;SDS011;5310;48.638;9.060;2023-03-01T08:02:05;1.10;;;1.10;;
10523;SDS011;5310;48.638;9.060;2023-03-01T08:04:31;1.00;;;1.00;;
10523;SDS011;5310;48.638;9.060;2023-03-01T08:06:58;1.10;;;1.10;;
10523;SDS011;5310;48.638;9.060;2023-03-01T08:09:24;1.10;;;1.10;;
10523;SDS011;5310;48.638;9.060;2023-03-01T08:11:49;1.10;;;1.10;;
10523;SDS011;5310;48.638;9.060;2023-03-01T08:14:15;1.20;;;1.20;;
10523;SDS011;5310;48.638;9.060;2023-03-01T08:16:41;1.17;;;1.17;;
10523;SDS011;5310;48.638;9.060;2023-03-01T08:19:09;1.10;;;1.10;;
10523;SDS011;5310;48.638;9.060;2023-03-01T08:21:35;1.10;;;1.10;;
10523;SDS011;5310;48.638;9.060;2023-03-01T08:24:02;1.10;;;1.10;;
10523;SDS011;5310;48.638;9.060;2023-03-01T08:26:28;1.10;;;1.10;;
10523;SDS011;5310;48.638;9.060;2023-03-01T08:28:54;1.10;;;1.10;;
10523;SDS011;5310;48.638;9.060;2023-03-01T08:33:56;1.10;;;1.10;;
10523;SDS011;5310;48.638;9.060;2023-03-01T08:36:23;1.10;;;1.10;;
10523;SDS011;5310;48.638;9.060;2023-03-01T08:38:49;1.10;;;1.10;;
10523;SDS011;5310;48.638;9.060;2023-03-01T08:41:15;1.10;;;1.10;;
10523;SDS011;5310;48.638;9.060;2023-03-01T08:43:41;1.10;;;1.10;;
10523;SDS011;5310;48.638;9.060;2023-03-01T08:46:06;1.10;;;1.10;;
10523;SDS011;5310;48.638;9.060;2023-03-01T08:48:32;1.10;;;1.10;;
10523;SDS011;5310;48.638;9.060;2023-03-01T08:51:14;1.10;;;1.10;;
10523;SDS011;5310;48.638;9.060;2023-03-01T08:53:41;1.10;;;1.10;;
10523;SDS011;5310;48.638;9.060;2023-03-01T08:56:07;1.10;;;1.10;;
10523;SDS011;5310;48.638;9.060;2023-03-01T08:58:33;1.10;;;1.10;;
10523;SDS011;5310;48.638;9.060;2023-03-01T09:00:59;1.10;;;1.10;;
10523;SDS011;5310;48.638;9.060;2023-03-01T09:03:25;1.10;;;1.10;;
10523;SDS011;5310;48.638;9.060;2023-03-01T09:05:52;1.10;;;1.10;;
10523;SDS011;5310;48.638;9.060;2023-03-01T09:08:18;1.10;;;1.10;;
10523;SDS011;5310;48.638;9.060;2023-03-01T09:10:44;1.00;;;1.00;;
10523;SDS011;5310;48.638;9.060;2023-03-01T09:13:10;1.10;;;1.10;;
10523;SDS011;5310;48.638;9.060;2023-03-01T09:15:37;1.10;;;1.10;;
10523;SDS011;5310;48.638;9.060;2023-03-01T09:18:03;1.10;;;1.10;;
10523;SDS011;5310;48.638;9.060;2023-03-01T09:20:30;1.10;;;1.10;;
10523;SDS011;5310;48.638;9.060;2023-03-01T09:22:56;1.20;;;1.20;;
10523;SDS011;5310;48.638;9.060;2023-03-01T09:25:22;1.20;;;1.20;;
10523;SDS011;5310;48.638;9.060;2023-03-01T09:27:52;1.10;;;1.10;;
10523;SDS011;5310;48.638;9.060;2023-03-01T09:30:18;1.10;;;1.10;;
10523;SDS011;5310;48.638;9.060;2023-03-01T09:32:45;1.10;;;1.10;;
10523;SDS011;5310;48.638;9.060;2023-03-01T09:35:11;1.00;;;1.00;;
10523;SDS011;5310;48.638;9.060;2023-03-01T09:37:37;1.10;;;1.10;;
10523;SDS011;5310;48.638;9.060;2023-03-01T09:40:04;1.10;;;1.10;;
10523;SDS011;5310;48.638;9.060;2023-03-01T09:42:34;1.10;;;1.10;;
10523;SDS011;5310;48.638;9.060;2023-03-01T09:45:11;1.10;;;1.10;;
10523;SDS011;5310;48.638;9.060;2023-03-01T09:47:48;1.10;;;1.10;;
10523;SDS011;5310;48.638;9.060;2023-03-01T09:50:16;1.10;;;1.10;;
10523;SDS011;5310;48.638;9.060;2023-03-01T09:52:45;1.10;;;1.10;;
10523;SDS011;5310;48.638;9.060;2023-03-01T09:55:44;1.00;;;1.00;;
10523;SDS011;5310;48.638;9.060;2023-03-01T09:58:31;1.00;;;1.00;;
10523;SDS011;5310;48.638;9.060;2023-03-01T10:01:02;1.00;;;1.00;;
10523;SDS011;5310;48.638;9.060;2023-03-01T10:03:43;1.00;;;1.00;;
10523;SDS011;5310;48.638;9.060;2023-03-01T10:06:12;1.00;;;1.00;;
10523;SDS011;5310;48.638;9.060;2023-03-01T10:08:56;1.10;;;1.10;;
10523;SDS011;5310;48.638;9.060;2023-03-01T10:11:30;1.10;;;1.10;;
10523;SDS011;5310;48.638;9.060;2023-03-01T10:14:12;1.10;;;1.10;;
10523;SDS011;5310;48.638;9.060;2023-03-01T10:16:48;1.10;;;1.10;;
10523;SDS011;5310;48.638;9.060;2023-03-01T10:19:39;1.10;;;1.10;;
10523;SDS011;5310;48.638;9.060;2023-03-01T10:24:40;1.00;;;1.00;;
10523;SDS011;5310;48.638;9.060;2023-03-01T10:27:12;1.10;;;1.10;;
10523;SDS011;5310;48.638;9.060;2023-03-01T10:29:50;1.10;;;1.10;;
10523;SDS011;5310;48.638;9.060;2023-03-01T10:32:20;1.10;;;1.10;;
10523;SDS011;5310;48.638;9.060;2023-03-01T10:34:47;1.00;;;1.00;;
10523;SDS011;5310;48.638;9.060;2023-03-01T10:37:14;1.00;;;1.00;;
10523;SDS011;5310;48.638;9.060;2023-03-01T10:39:58;1.10;;;1.10;;
10523;SDS011;5310;48.638;9.060;2023-03-01T10:42:33;1.10;;;1.10;;
10523;SDS011;5310;48.638;9.060;2023-03-01T10:45:14;1.00;;;1.00;;
10523;SDS011;5310;48.638;9.060;2023-03-01T10:48:05;1.00;;;1.00;;
10523;SDS011;5310;48.638;9.060;2023-03-01T10:50:31;1.00;;;1.00;;
10523;SDS011;5310;48.638;9.060;2023-03-01T10:52:58;1.00;;;1.00;;
10523;SDS011;5310;48.638;9.060;2023-03-01T10:55:28;1.00;;;1.00;;
10523;SDS011;5310;48.638;9.060;2023-03-01T10:58:17;1.00;;;1.00;;
10523;SDS011;5310;48.638;9.060;2023-03-01T11:03:14;1.00;;;1.00;;
10523;SDS011;5310;48.638;9.060;2023-03-01T11:05:58;1.10;;;1.10;;
10523;SDS011;5310;48.638;9.060;2023-03-01T11:08:35;1.10;;;1.10;;
10523;SDS011;5310;48.638;9.060;2023-03-01T11:11:06;1.00;;;1.00;;
10523;SDS011;5310;48.638;9.060;2023-03-01T11:14:13;1.10;;;1.10;;
10523;SDS011;5310;48.638;9.060;2023-03-01T11:16:38;1.10;;;1.10;;
10523;SDS011;5310;48.638;9.060;2023-03-01T11:21:42;1.00;;;1.00;;
10523;SDS011;5310;48.638;9.060;2023-03-01T11:24:12;1.10;;;1.10;;
10523;SDS011;5310;48.638;9.060;2023-03-01T11:26:44;1.00;;;1.00;;
10523;SDS011;5310;48.638;9.060;2023-03-01T11:29:17;1.03;;;1.03;;
10523;SDS011;5310;48.638;9.060;2023-03-01T11:31:52;1.00;;;1.00;;
10523;SDS011;5310;48.638;9.060;2023-03-01T11:34:43;1.00;;;1.00;;
10523;SDS011;5310;48.638;9.060;2023-03-01T11:40:05;1.00;;;1.00;;
10523;SDS011;5310;48.638;9.060;2023-03-01T11:42:50;1.00;;;1.00;;
10523;SDS011;5310;48.638;9.060;2023-03-01T11:45:38;1.00;;;1.00;;
10523;SDS011;5310;48.638;9.060;2023-03-01T11:50:52;1.00;;;1.00;;
10523;SDS011;5310;48.638;9.060;2023-03-01T12:01:31;1.00;;;1.00;;
10523;SDS011;5310;48.638;9.060;2023-03-01T12:06:57;1.00;;;1.00;;
10523;SDS011;5310;48.638;9.060;2023-03-01T12:09:54;1.00;;;1.00;;
10523;SDS011;5310;48.638;9.060;2023-03-01T12:12:25;1.00;;;1.00;;
10523;SDS011;5310;48.638;9.060;2023-03-01T12:17:40;1.00;;;1.00;;
10523;SDS011;5310;48.638;9.060;2023-03-01T12:25:51;1.00;;;1.00;;
10523;SDS011;5310;48.638;9.060;2023-03-01T12:36:51;1.10;;;1.10;;
10523;SDS011;5310;48.638;9.060;2023-03-01T12:39:41;1.10;;;1.10;;
10523;SDS011;5310;48.638;9.060;2023-03-01T12:42:24;1.00;;;1.00;;
10523;SDS011;5310;48.638;9.060;2023-03-01T12:45:16;0.97;;;0.97;;
10523;SDS011;5310;48.638;9.060;2023-03-01T12:50:14;1.00;;;1.00;;
10523;SDS011;5310;48.638;9.060;2023-03-01T12:52:55;1.10;;;1.10;;
10523;SDS011;5310;48.638;9.060;2023-03-01T12:55:34;1.00;;;1.00;;
10523;SDS011;5310;48.638;9.060;2023-03-01T13:04:02;1.00;;;1.00;;
10523;SDS011;5310;48.638;9.060;2023-03-01T13:06:40;1.00;;;1.00;;
10523;SDS011;5310;48.638;9.060;2023-03-01T13:09:19;1.00;;;1.00;;
10523;SDS011;5310;48.638;9.060;2023-03-01T13:11:49;1.00;;;1.00;;
10523;SDS011;5310;48.638;9.060;2023-03-01T13:16:47;0.90;;;0.90;;
10523;SDS011;5310;48.638;9.060;2023-03-01T13:21:43;1.00;;;1.00;;
10523;SDS011;5310;48.638;9.060;2023-03-01T13:29:45;0.90;;;0.90;;
10523;SDS011;5310;48.638;9.060;2023-03-01T13:32:25;0.90;;;0.90;;
10523;SDS011;5310;48.638;9.060;2023-03-01T13:35:03;1.00;;;1.00;;
10523;SDS011;5310;48.638;9.060;2023-03-01T13:38:36;0.97;;;0.97;;
10523;SDS011;5310;48.638;9.060;2023-03-01T13:46:16;0.80;;;0.80;;
10523;SDS011;5310;48.638;9.060;2023-03-01T13:48:47;0.90;;;0.90;;
10523;SDS011;5310;48.638;9.060;2023-03-01T13:51:15;1.00;;;1.00;;
10523;SDS011;5310;48.638;9.060;2023-03-01T13:53:45;0.90;;;0.90;;
10523;SDS011;5310;48.638;9.060;2023-03-01T13:58:55;0.90;;;0.90;;
10523;SDS011;5310;48.638;9.060;2023-03-01T14:01:42;0.90;;;0.90;;
10523;SDS011;5310;48.638;9.060;2023-03-01T14:04:20;0.90;;;0.90;;
10523;SDS011;5310;48.638;9.060;2023-03-01T14:07:10;1.00;;;1.00;;
10523;SDS011;5310;48.638;9.060;2023-03-01T14:09:44;1.00;;;1.00;;
10523;SDS011;5310;48.638;9.060;2023-03-01T14:15:04;0.90;;;0.90;;
10523;SDS011;5310;48.638;9.060;2023-03-01T14:20:26;1.00;;;1.00;;
10523;SDS011;5310;48.638;9.060;2023-03-01T14:23:01;1.00;;;1.00;;
10523;SDS011;5310;48.638;9.060;2023-03-01T14:25:28;0.97;;;0.97;;
10523;SDS011;5310;48.638;9.060;2023-03-01T14:28:11;0.90;;;0.90;;
10523;SDS011;5310;48.638;9.060;2023-03-01T14:30:42;0.90;;;0.90;;
10523;SDS011;5310;48.638;9.060;2023-03-01T14:33:23;0.90;;;0.90;;
10523;SDS011;5310;48.638;9.060;2023-03-01T14:36:03;0.90;;;0.90;;
10523;SDS011;5310;48.638;9.060;2023-03-01T14:38:31;0.90;;;0.90;;
10523;SDS011;5310;48.638;9.060;2023-03-01T14:40:59;0.90;;;0.90;;
10523;SDS011;5310;48.638;9.060;2023-03-01T14:43:28;0.87;;;0.87;;
10523;SDS011;5310;48.638;9.060;2023-03-01T14:45:54;1.00;;;1.00;;
10523;SDS011;5310;48.638;9.060;2023-03-01T14:48:20;1.00;;;1.00;;
10523;SDS011;5310;48.638;9.060;2023-03-01T14:50:47;0.90;;;0.90;;
10523;SDS011;5310;48.638;9.060;2023-03-01T14:53:18;0.90;;;0.90;;
10523;SDS011;5310;48.638;9.060;2023-03-01T14:55:47;1.00;;;1.00;;
10523;SDS011;5310;48.638;9.060;2023-03-01T14:58:15;0.90;;;0.90;;
10523;SDS011;5310;48.638;9.060;2023-03-01T15:00:47;0.90;;;0.90;;
10523;SDS011;5310;48.638;9.060;2023-03-01T15:03:38;1.00;;;1.00;;
10523;SDS011;5310;48.638;9.060;2023-03-01T15:06:08;0.90;;;0.90;;
10523;SDS011;5310;48.638;9.060;2023-03-01T15:08:34;0.90;;;0.90;;
10523;SDS011;5310;48.638;9.060;2023-03-01T15:11:03;0.90;;;0.90;;
10523;SDS011;5310;48.638;9.060;2023-03-01T15:13:38;0.80;;;0.80;;
10523;SDS011;5310;48.638;9.060;2023-03-01T15:16:13;0.90;;;0.90;;
10523;SDS011;5310;48.638;9.060;2023-03-01T15:18:59;0.90;;;0.90;;
10523;SDS011;5310;48.638;9.060;2023-03-01T15:21:27;0.90;;;0.90;;
10523;SDS011;5310;48.638;9.060;2023-03-01T15:24:02;0.90;;;0.90;;
10523;SDS011;5310;48.638;9.060;2023-03-01T15:26:54;0.97;;;0.97;;
10523;SDS011;5310;48.638;9.060;2023-03-01T15:29:23;1.00;;;1.00;;
10523;SDS011;5310;48.638;9.060;2023-03-01T15:34:32;1.00;;;1.00;;
10523;SDS011;5310;48.638;9.060;2023-03-01T15:36:59;1.00;;;1.00;;
10523;SDS011;5310;48.638;9.060;2023-03-01T15:39:32;0.90;;;0.90;;
10523;SDS011;5310;48.638;9.060;2023-03-01T15:42:02;0.80;;;0.80;;
10523;SDS011;5310;48.638;9.060;2023-03-01T15:44:31;0.90;;;0.90;;
10523;SDS011;5310;48.638;9.060;2023-03-01T15:46:59;0.80;;;0.80;;
10523;SDS011;5310;48.638;9.060;2023-03-01T15:49:38;0.80;;;0.80;;
10523;SDS011;5310;48.638;9.060;2023-03-01T15:52:08;1.00;;;1.00;;
10523;SDS011;5310;48.638;9.060;2023-03-01T15:54:39;0.90;;;0.90;;
10523;SDS011;5310;48.638;9.060;2023-03-01T15:57:08;0.87;;;0.87;;
10523;SDS011;5310;48.638;9.060;2023-03-01T15:59:34;1.00;;;1.00;;
10523;SDS011;5310;48.638;9.060;2023-03-01T16:02:00;0.90;;;0.90;;
10523;SDS011;5310;48.638;9.060;2023-03-01T16:04:26;0.90;;;0.90;;
10523;SDS011;5310;48.638;9.060;2023-03-01T16:06:53;0.90;;;0.90;;
10523;SDS011;5310;48.638;9.060;2023-03-01T16:09:28;1.00;;;1.00;;
10523;SDS011;5310;48.638;9.060;2023-03-01T16:11:53;1.00;;;1.00;;
10523;SDS011;5310;48.638;9.060;2023-03-01T16:14:20;1.00;;;1.00;;
10523;SDS011;5310;48.638;9.060;2023-03-01T16:16:46;0.90;;;0.90;;
10523;SDS011;5310;48.638;9.060;2023-03-01T16:19:15;0.93;;;0.93;;
10523;SDS011;5310;48.638;9.060;2023-03-01T16:21:41;0.90;;;0.90;;
10523;SDS011;5310;48.638;9.060;2023-03-01T16:24:08;0.87;;;0.87;;
10523;SDS011;5310;48.638;9.060;2023-03-01T16:26:36;1.00;;;1.00;;
10523;SDS011;5310;48.638;9.060;2023-03-01T16:29:02;1.00;;;1.00;;
10523;SDS011;5310;48.638;9.060;2023-03-01T16:31:28;0.93;;;0.93;;
10523;SDS011;5310;48.638;9.060;2023-03-01T16:33:56;1.00;;;1.00;;
10523;SDS011;5310;48.638;9.060;2023-03-01T16:36:23;1.00;;;1.00;;
10523;SDS011;5310;48.638;9.060;2023-03-01T16:38:53;0.93;;;0.93;;
10523;SDS011;5310;48.638;9.060;2023-03-01T16:41:20;1.00;;;1.00;;
10523;SDS011;5310;48.638;9.060;2023-03-01T16:43:47;1.00;;;1.00;;